Time;durP1;ratioP1;P1;durP2;ratioP2;P2;SDS_P1;SDS_P2;PMS_P1;PMS_P2;Temp;Humidity;BMP_temperature;BMP_pressure;BME280_temperature;BME280_humidity;BME280_pressure;Samples;Min_cycle;Max_cycle;Signal;HPM_P1;HPM_P2
2022/08/11 00:01:06;;;;;;;3.75;1.55;;;22.10;77.20;;;;;;5049134;28;20378;-67
2022/08/11 00:03:33;;;;;;;2.90;1.95;;;21.80;77.40;;;;;;5049024;28;20029;-68
2022/08/11 00:05:59;;;;;;;2.63;1.40;;;22.20;77.60;;;;;;5048670;28;20017;-67
2022/08/11 00:08:27;;;;;;;3.03;1.75;;;22.00;77.20;;;;;;5049034;28;20079;-67
2022/08/11 00:11:07;;;;;;;5.55;1.95;;;21.80;77.80;;;;;;5049063;28;20508;-67
2022/08/11 00:13:45;;;;;;;6.05;1.88;;;21.90;78.50;;;;;;5049000;28;20122;-67
2022/08/11 00:16:23;;;;;;;3.65;1.67;;;21.80;78.90;;;;;;5047101;28;20029;-67
2022/08/11 00:18:53;;;;;;;2.97;1.80;;;21.80;78.50;;;;;;5044379;28;20053;-67
2022/08/11 00:21:20;;;;;;;4.20;1.65;;;21.50;78.60;;;;;;5048147;28;20121;-67
2022/08/11 00:24:01;;;;;;;4.65;1.60;;;22.90;79.40;;;;;;5049123;28;20032;-67
2022/08/11 00:26:28;;;;;;;4.03;1.83;;;21.70;77.50;;;;;;5049073;28;20037;-67
2022/08/11 00:28:54;;;;;;;3.80;1.98;;;21.50;79.20;;;;;;5048808;28;20092;-67
2022/08/11 00:31:26;;;;;;;2.55;1.55;;;21.50;79.10;;;;;;5050685;28;20072;-67
2022/08/11 00:33:52;;;;;;;4.30;1.98;;;21.70;77.20;;;;;;5053126;28;20031;-67
2022/08/11 00:36:20;;;;;;;4.38;2.30;;;21.60;79.30;;;;;;5052330;28;20025;-67
2022/08/11 00:38:50;;;;;;;2.20;1.65;;;21.40;79.60;;;;;;5053330;28;20108;-68
2022/08/11 00:41:34;;;;;;;2.10;1.55;;;21.50;80.20;;;;;;5052019;28;20024;-67
2022/08/11 00:44:27;;;;;;;2.03;1.83;;;21.50;78.60;;;;;;5052540;28;20108;-67
2022/08/11 00:47:12;;;;;;;2.65;1.30;;;21.40;80.70;;;;;;5045874;28;20083;-66
2022/08/11 00:49:52;;;;;;;6.25;2.40;;;21.40;78.20;;;;;;5036682;28;20120;-67
2022/08/11 00:53:04;;;;;;;2.97;1.58;;;21.50;79.40;;;;;;5050812;28;20032;-66
2022/08/11 00:55:38;;;;;;;3.08;1.75;;;21.40;79.70;;;;;;5051873;28;20098;-68
2022/08/11 00:58:44;;;;;;;4.25;2.03;;;21.60;80.00;;;;;;5051966;28;20090;-69
2022/08/11 01:01:15;;;;;;;2.75;1.73;;;21.40;92.80;;;;;;5040019;28;20061;-69
2022/08/11 01:03:59;;;;;;;3.88;1.58;;;21.10;79.90;;;;;;5049944;28;20055;-70
2022/08/11 01:07:07;;;;;;;2.35;1.80;;;21.20;80.30;;;;;;5051940;28;20044;-69
2022/08/11 01:09:50;;;;;;;4.88;1.95;;;21.30;92.80;;;;;;5050736;28;20035;-68
2022/08/11 01:12:19;;;;;;;3.15;2.13;;;21.10;80.70;;;;;;5051396;28;20119;-68
2022/08/11 01:15:15;;;;;;;3.03;2.13;;;21.20;82.50;;;;;;5052097;28;20025;-68
2022/08/11 01:18:15;;;;;;;6.40;1.80;;;21.10;80.80;;;;;;5039431;28;20029;-67
2022/08/11 01:20:53;;;;;;;3.50;1.58;;;21.10;80.80;;;;;;5051594;28;20017;-67
2022/08/11 01:23:40;;;;;;;2.60;1.45;;;21.10;80.90;;;;;;5051401;28;20116;-67
2022/08/11 01:26:11;;;;;;;2.78;1.98;;;21.10;81.00;;;;;;5037561;28;20555;-67
2022/08/11 01:29:03;;;;;;;3.58;1.75;;;21.00;83.10;;;;;;5051710;28;20029;-68
2022/08/11 01:31:47;;;;;;;4.57;1.58;;;21.10;83.50;;;;;;5051243;28;20029;-68
2022/08/11 01:34:50;;;;;;;2.80;1.70;;;20.90;83.60;;;;;;5050523;28;20037;-68
2022/08/11 01:37:53;;;;;;;5.05;2.13;;;20.90;82.00;;;;;;5051086;28;20539;-67
2022/08/11 01:40:48;;;;;;;3.55;1.75;;;20.90;82.50;;;;;;5042204;28;20025;-67
2022/08/11 01:46:42;;;;;;;3.47;1.60;;;20.70;82.10;;;;;;5050236;28;20461;-67
2022/08/11 01:49:36;;;;;;;5.25;1.60;;;20.80;82.40;;;;;;5050638;28;20120;-67
2022/08/11 01:52:28;;;;;;;2.17;1.50;;;20.80;82.90;;;;;;5040510;28;20037;-67
2022/08/11 01:55:13;;;;;;;3.30;1.38;;;20.70;83.20;;;;;;5048857;28;20470;-66
2022/08/11 01:57:55;;;;;;;2.63;1.90;;;20.50;85.00;;;;;;5051150;28;20041;-67
2022/08/11 02:00:27;;;;;;;2.45;1.60;;;20.60;83.30;;;;;;5037933;28;20466;-66
2022/08/11 02:03:07;;;;;;;2.58;1.67;;;20.50;85.20;;;;;;5050529;28;20061;-67
2022/08/11 02:05:32;;;;;;;3.58;2.13;;;21.20;85.90;;;;;;5048046;28;20083;-67
2022/08/11 02:08:19;;;;;;;3.40;2.10;;;20.50;84.70;;;;;;5050553;28;20025;-67
2022/08/11 02:13:59;;;;;;;2.28;1.70;;;20.40;86.10;;;;;;5049122;28;20504;-67
2022/08/11 02:16:42;;;;;;;3.65;1.77;;;20.40;84.70;;;;;;5050174;28;20033;-67
2022/08/11 02:25:03;;;;;;;6.07;2.08;;;20.20;86.80;;;;;;5050956;28;20056;-67
2022/08/11 02:27:48;;;;;;;2.25;1.92;;;20.20;87.40;;;;;;5050286;28;20021;-67
2022/08/11 02:30:17;;;;;;;1.80;1.45;;;20.00;85.40;;;;;;5049761;28;20028;-67
2022/08/11 02:36:02;;;;;;;4.83;1.90;;;20.00;87.70;;;;;;5049084;28;20504;-67
2022/08/11 02:38:48;;;;;;;3.05;1.70;;;20.10;88.00;;;;;;5043080;28;20264;-67
2022/08/11 02:44:48;;;;;;;2.30;1.63;;;20.00;86.30;;;;;;5048584;28;20032;-67
2022/08/11 02:49:52;;;;;;;2.78;2.05;;;20.00;86.50;;;;;;5046707;28;20136;-67
2022/08/11 02:50:41;;;;;;;3.25;1.50;;;19.90;88.20;;;;;;5047590;28;20049;-67
2022/08/11 02:53:25;;;;;;;4.00;2.20;;;19.90;86.30;;;;;;5047557;28;20062;-68
2022/08/11 02:56:00;;;;;;;3.90;1.77;;;19.90;88.50;;;;;;5047892;28;20115;-67
2022/08/11 03:02:09;;;;;;;6.07;1.92;;;19.80;87.40;;;;;;5047163;28;20090;-67
2022/08/11 03:04:46;;;;;;;5.07;2.42;;;19.70;89.00;;;;;;5050173;28;20029;-68
2022/08/11 03:07:30;;;;;;;7.60;2.45;;;19.80;89.10;;;;;;5048200;28;20104;-68
2022/08/11 03:10:20;;;;;;;3.72;2.17;;;19.70;89.40;;;;;;5048947;28;20132;-67
2022/08/11 03:19:25;;;;;;;3.83;1.83;;;19.60;88.30;;;;;;5049607;28;20036;-67
2022/08/11 03:22:23;;;;;;;4.03;1.90;;;19.60;88.30;;;;;;5049745;28;20021;-67
2022/08/11 03:25:04;;;;;;;3.72;2.50;;;19.50;88.90;;;;;;5049743;28;20492;-67
2022/08/11 03:27:38;;;;;;;3.40;2.00;;;19.50;88.60;;;;;;5036086;28;20049;-67
2022/08/11 03:30:22;;;;;;;3.63;2.10;;;19.40;87.60;;;;;;5049036;28;20025;-68
2022/08/11 03:36:45;;;;;;;3.35;2.10;;;19.50;89.00;;;;;;5037379;28;20036;-67
2022/08/11 03:39:25;;;;;;;3.22;2.15;;;19.30;89.20;;;;;;5048922;28;20032;-67
2022/08/11 03:42:19;;;;;;;4.05;2.13;;;19.30;89.60;;;;;;5049681;28;20477;-68
2022/08/11 03:44:48;;;;;;;4.28;2.55;;;19.30;90.60;;;;;;5037880;28;20033;-68
2022/08/11 03:47:30;;;;;;;4.30;2.40;;;19.40;96.70;;;;;;5048845;28;20177;-67
2022/08/11 03:50:08;;;;;;;3.72;2.13;;;19.30;89.60;;;;;;5049407;28;20021;-67
2022/08/11 03:53:13;;;;;;;3.80;2.42;;;19.10;90.60;;;;;;5049167;28;20058;-68
2022/08/11 03:56:00;;;;;;;2.75;2.20;;;19.30;89.90;;;;;;5049589;28;20041;-67
2022/08/11 03:58:41;;;;;;;4.20;2.05;;;19.30;89.50;;;;;;5048658;28;20063;-68
2022/08/11 04:01:25;;;;;;;3.00;2.33;;;19.40;90.60;;;;;;5048947;28;20048;-67
2022/08/11 04:04:05;;;;;;;2.17;1.98;;;19.20;89.90;;;;;;5048184;28;20444;-67
2022/08/11 04:06:34;;;;;;;2.63;2.20;;;19.10;89.00;;;;;;5040476;28;20032;-67
2022/08/11 04:09:37;;;;;;;6.70;2.63;;;19.10;90.80;;;;;;5052726;28;20492;-68
2022/08/11 04:12:09;;;;;;;2.88;2.15;;;19.10;90.20;;;;;;5052272;28;20505;-67
2022/08/11 04:18:28;;;;;;;2.90;2.10;;;21.10;90.70;;;;;;5047821;28;20043;-67
2022/08/11 04:21:24;;;;;;;3.97;2.58;;;19.10;90.30;;;;;;5043829;28;20021;-67
2022/08/11 04:24:17;;;;;;;3.72;2.45;;;19.00;90.40;;;;;;5051152;28;20087;-67
2022/08/11 04:27:16;;;;;;;4.43;2.63;;;19.00;90.30;;;;;;5051026;28;20489;-69
2022/08/11 04:29:59;;;;;;;6.32;2.45;;;18.90;90.40;;;;;;5051405;28;20478;-68
2022/08/11 04:32:46;;;;;;;6.68;2.92;;;19.00;90.10;;;;;;5049852;28;20048;-67
2022/08/11 04:36:04;;;;;;;4.18;3.00;;;19.00;90.70;;;;;;5052007;28;20036;-67
2022/08/11 04:38:43;;;;;;;2.58;2.15;;;18.70;90.80;;;;;;4990604;28;20046;-67
2022/08/11 04:41:33;;;;;;;3.70;2.63;;;18.90;90.70;;;;;;4990346;28;20032;-68
2022/08/11 04:44:38;;;;;;;4.03;2.70;;;18.80;90.70;;;;;;4990421;28;20026;-67
2022/08/11 05:02:54;;;;;;;5.05;2.50;;;19.00;90.60;;;;;;4983515;28;20053;-68
2022/08/11 05:05:32;;;;;;;;;;;19.00;91.40;;;;;;4990902;28;20098;-67
2022/08/11 05:08:27;;;;;;;4.45;2.15;;;19.00;90.70;;;;;;4990323;28;19988;-67
2022/08/11 05:11:26;;;;;;;7.28;3.28;;;19.10;90.50;;;;;;4990091;28;20047;-67
2022/08/11 05:37:09;;;;;;;6.30;2.42;;;19.40;90.80;;;;;;5050454;28;20040;-67
2022/08/11 05:56:46;;;;;;;5.53;2.67;;;19.90;90.10;;;;;;5051232;28;20048;-67
2022/08/11 05:59:14;;;;;;;4.00;2.35;;;20.10;90.10;;;;;;5050614;28;20028;-67
2022/08/11 06:01:42;;;;;;;4.05;2.60;;;20.70;90.00;;;;;;5050971;28;20412;-67
2022/08/11 06:04:20;;;;;;;2.70;2.30;;;20.20;89.70;;;;;;5047874;28;20056;-67
2022/08/11 06:07:16;;;;;;;5.18;2.78;;;20.20;88.00;;;;;;5043702;28;20025;-68
2022/08/11 06:09:50;;;;;;;6.22;2.63;;;20.20;89.60;;;;;;5050192;28;20033;-68
2022/08/11 06:12:36;;;;;;;;;;;20.20;89.20;;;;;;5038056;28;20481;-66
2022/08/11 06:15:08;;;;;;;2.95;2.40;;;20.30;89.50;;;;;;5050404;28;20277;-67
2022/08/11 06:17:44;;;;;;;8.88;3.13;;;20.40;88.70;;;;;;5050781;28;20023;-67
2022/08/11 06:20:11;;;;;;;5.80;3.65;;;20.40;88.50;;;;;;5050064;28;20024;-67
2022/08/11 06:22:38;;;;;;;6.13;2.22;;;20.40;87.70;;;;;;5050315;28;20084;-66
2022/08/11 06:25:06;;;;;;;5.65;2.60;;;20.50;87.60;;;;;;5050398;28;20079;-67
2022/08/11 06:27:35;;;;;;;5.35;3.30;;;20.40;87.40;;;;;;5048676;28;20025;-66
2022/08/11 06:30:12;;;;;;;5.35;2.75;;;20.50;87.50;;;;;;5050496;28;20523;-66
2022/08/11 06:32:39;;;;;;;3.03;2.72;;;20.60;86.90;;;;;;5037519;28;20120;-67
2022/08/11 06:35:20;;;;;;;3.67;2.42;;;20.70;86.70;;;;;;5039210;28;20065;-66
2022/08/11 06:37:58;;;;;;;4.28;2.63;;;20.90;87.30;;;;;;5037395;28;20414;-67
2022/08/11 06:41:29;;;;;;;5.15;3.03;;;20.80;85.70;;;;;;5050053;28;20043;-66
2022/08/11 06:43:53;;;;;;;3.03;2.42;;;20.80;87.60;;;;;;5050146;28;20084;-67
2022/08/11 06:46:40;;;;;;;5.15;2.83;;;20.90;85.40;;;;;;5050089;28;20025;-66
2022/08/11 06:51:53;;;;;;;5.30;2.65;;;21.10;86.20;;;;;;5041614;28;20044;-66
2022/08/11 06:54:20;;;;;;;4.90;2.55;;;20.90;85.80;;;;;;5061355;28;20496;-66
2022/08/11 07:02:25;;;;;;;5.38;2.35;;;21.20;85.70;;;;;;5045803;28;20040;-67
2022/08/11 07:04:59;;;;;;;4.35;2.28;;;21.30;85.60;;;;;;5045170;28;20024;-67
2022/08/11 07:16:48;;;;;;;3.28;2.53;;;21.70;84.20;;;;;;5048380;28;20024;-67
2022/08/11 07:30:38;;;;;;;3.17;2.25;;;22.10;79.90;;;;;;5048841;28;20036;-67
2022/08/11 07:33:05;;;;;;;3.17;1.92;;;23.50;82.00;;;;;;5047439;28;20462;-67
2022/08/11 07:35:35;;;;;;;3.30;1.92;;;22.30;80.60;;;;;;5047478;28;20068;-67
2022/08/11 07:38:08;;;;;;;3.42;1.90;;;22.40;81.00;;;;;;5048232;28;20083;-67
2022/08/11 07:40:35;;;;;;;2.58;1.85;;;22.60;81.50;;;;;;5052253;28;20029;-67
2022/08/11 07:43:02;;;;;;;3.75;2.70;;;22.70;80.60;;;;;;5043399;28;20025;-67
2022/08/11 07:53:45;;;;;;;4.93;2.25;;;23.30;78.20;;;;;;5049317;28;20090;-67
2022/08/11 07:56:15;;;;;;;2.58;1.95;;;23.20;78.50;;;;;;5051550;28;20029;-67
2022/08/11 08:18:02;;;;;;;5.72;2.63;;;24.00;76.50;;;;;;5048120;28;20067;-67
2022/08/11 08:20:37;;;;;;;3.45;2.67;;;24.10;75.80;;;;;;5050257;28;20021;-67
2022/08/11 08:23:04;;;;;;;3.03;2.28;;;24.30;74.20;;;;;;5052252;28;20036;-67
2022/08/11 08:25:32;;;;;;;3.25;2.30;;;24.90;75.50;;;;;;5051706;28;20029;-67
2022/08/11 08:27:59;;;;;;;6.28;2.25;;;24.50;74.80;;;;;;5051428;28;20029;-67
2022/08/11 08:33:20;;;;;;;5.13;2.80;;;24.40;74.20;;;;;;5043350;28;20051;-68
2022/08/11 08:35:50;;;;;;;5.60;1.83;;;24.70;72.90;;;;;;5051244;28;20059;-67
2022/08/11 08:38:16;;;;;;;5.05;2.33;;;25.30;74.80;;;;;;5050865;28;20047;-67
2022/08/11 08:40:44;;;;;;;3.63;2.33;;;25.80;74.30;;;;;;5052411;28;20482;-67
2022/08/11 08:43:16;;;;;;;3.30;2.13;;;24.90;73.40;;;;;;5051200;28;20021;-67
2022/08/11 08:45:42;;;;;;;3.03;2.15;;;25.20;73.90;;;;;;5052552;28;20028;-67
2022/08/11 08:48:12;;;;;;;2.70;2.22;;;25.00;73.20;;;;;;5050748;28;20079;-67
2022/08/11 08:53:52;;;;;;;5.45;2.00;;;25.10;74.10;;;;;;5044858;28;20082;-66
2022/08/11 08:56:19;;;;;;;4.85;2.70;;;25.10;73.00;;;;;;5050592;28;20025;-68
2022/08/11 08:58:48;;;;;;;6.40;2.13;;;25.30;72.60;;;;;;5050599;28;20060;-66
2022/08/11 09:01:15;;;;;;;3.13;1.77;;;25.60;73.10;;;;;;5050917;28;20051;-67
2022/08/11 09:03:42;;;;;;;4.85;2.00;;;25.40;72.80;;;;;;5050067;28;20025;-67
2022/08/11 09:06:08;;;;;;;4.40;2.60;;;25.60;72.70;;;;;;5050081;28;20481;-68
2022/08/11 09:08:34;;;;;;;4.45;2.53;;;26.70;73.60;;;;;;5048414;28;20074;-66
2022/08/11 09:13:47;;;;;;;5.57;2.28;;;26.30;72.00;;;;;;5051117;28;20039;-67
2022/08/11 09:16:14;;;;;;;3.17;2.35;;;25.80;71.00;;;;;;5049448;28;20537;-66
2022/08/11 09:18:43;;;;;;;4.60;2.30;;;26.30;71.20;;;;;;5049548;28;20032;-67
2022/08/11 09:21:14;;;;;;;4.63;2.03;;;25.90;71.10;;;;;;5044657;28;20090;-67
2022/08/11 09:29:10;;;;;;;3.05;2.40;;;26.00;70.60;;;;;;5049067;28;20055;-67
2022/08/11 09:31:37;;;;;;;3.65;2.53;;;26.20;69.60;;;;;;5050524;28;20385;-66
2022/08/11 09:34:02;;;;;;;3.90;2.20;;;26.20;68.80;;;;;;5049999;28;20025;-66
2022/08/11 09:42:04;;;;;;;3.60;1.88;;;26.30;68.40;;;;;;5050728;28;20032;-67
2022/08/11 09:44:46;;;;;;;3.40;2.58;;;26.50;68.20;;;;;;5048479;28;20035;-66
2022/08/11 09:47:16;;;;;;;3.65;2.53;;;26.60;67.60;;;;;;5046319;28;20086;-66
2022/08/11 09:49:44;;;;;;;3.95;2.78;;;26.60;67.00;;;;;;5048142;28;20021;-67
2022/08/11 09:52:13;;;;;;;3.25;2.30;;;26.50;67.00;;;;;;5050672;28;20520;-66
2022/08/11 09:54:40;;;;;;;5.13;2.45;;;26.80;67.00;;;;;;5047841;28;20029;-67
2022/08/11 09:59:52;;;;;;;4.75;3.03;;;26.90;64.30;;;;;;5046995;28;20098;-67
2022/08/11 10:02:28;;;;;;;4.47;2.42;;;27.10;65.00;;;;;;5049288;28;20059;-67
2022/08/11 10:07:00;;;;;;;2.35;2.13;;;27.30;64.90;;;;;;5050613;28;20020;-66
2022/08/11 10:07:49;;;;;;;7.38;2.67;;;27.80;64.90;;;;;;5041978;28;20028;-67
2022/08/11 10:10:16;;;;;;;5.13;2.60;;;27.70;64.10;;;;;;5049242;28;20120;-67
2022/08/11 10:13:04;;;;;;;2.63;2.10;;;27.80;64.20;;;;;;5050873;28;20635;-67
2022/08/11 10:15:36;;;;;;;5.20;2.47;;;27.60;62.30;;;;;;5047657;28;20035;-67
2022/08/11 10:21:00;;;;;;;4.55;2.35;;;27.70;63.20;;;;;;5049041;28;20048;-67
2022/08/11 10:33:59;;;;;;;4.43;2.30;;;27.70;61.60;;;;;;5045870;28;20040;-67
2022/08/11 10:34:40;;;;;;;6.72;2.67;;;28.10;61.50;;;;;;5037825;28;20090;-67
2022/08/11 10:37:06;;;;;;;2.83;2.20;;;27.90;61.50;;;;;;5047615;28;20381;-67
2022/08/11 10:39:32;;;;;;;3.55;1.88;;;27.80;60.70;;;;;;5050328;28;20017;-69
2022/08/11 10:44:49;;;;;;;7.63;2.10;;;28.20;60.00;;;;;;5049602;28;20429;-67
2022/08/11 10:47:33;;;;;;;5.28;1.90;;;27.90;60.40;;;;;;5048779;28;20041;-67
2022/08/11 11:01:08;;;;;;;3.78;2.08;;;28.30;58.20;;;;;;5047101;28;20070;-67
2022/08/11 11:03:35;;;;;;;3.33;1.90;;;28.50;58.40;;;;;;5048470;28;20049;-67
2022/08/11 11:06:10;;;;;;;3.45;1.83;;;28.30;58.60;;;;;;5044316;28;20036;-67
2022/08/11 11:08:53;;;;;;;3.72;2.00;;;28.50;56.80;;;;;;5047089;28;20017;-67
2022/08/11 11:11:22;;;;;;;7.03;1.48;;;28.40;57.90;;;;;;5049582;28;20039;-67
2022/08/11 11:19:41;;;;;;;3.50;2.30;;;28.50;58.10;;;;;;5025527;28;20107;-68
2022/08/11 11:25:20;;;;;;;2.72;1.73;;;28.50;57.10;;;;;;5021236;28;20505;-67
2022/08/11 11:28:24;;;;;;;2.63;1.92;;;28.70;56.20;;;;;;5004748;28;20462;-67
2022/08/11 11:31:01;;;;;;;3.05;1.70;;;28.50;56.60;;;;;;4995234;28;20503;-68
2022/08/11 11:34:11;;;;;;;3.67;1.60;;;28.50;57.60;;;;;;5007345;28;20032;-68
2022/08/11 11:36:52;;;;;;;5.47;1.42;;;28.60;56.00;;;;;;4989252;28;20042;-68
2022/08/11 11:39:21;;;;;;;2.50;1.42;;;28.60;55.30;;;;;;4993582;28;20034;-68
2022/08/11 11:41:50;;;;;;;3.30;1.63;;;28.70;57.40;;;;;;5010105;28;20042;-67
2022/08/11 11:44:16;;;;;;;2.15;1.90;;;28.60;56.80;;;;;;5007001;28;20048;-68
2022/08/11 11:46:45;;;;;;;2.85;2.00;;;28.40;56.40;;;;;;5008441;28;20045;-68
2022/08/11 11:49:14;;;;;;;5.03;1.98;;;28.60;55.60;;;;;;5031354;28;20116;-70
2022/08/11 11:51:40;;;;;;;2.40;1.50;;;28.70;56.00;;;;;;5040610;28;20426;-68
2022/08/11 11:54:06;;;;;;;2.17;1.08;;;28.70;55.80;;;;;;5037073;28;20021;-68
2022/08/11 11:56:33;;;;;;;2.70;1.50;;;29.70;56.00;;;;;;5047946;28;20039;-68
2022/08/11 12:01:44;;;;;;;3.13;2.30;;;29.40;54.60;;;;;;5048848;28;20111;-71
2022/08/11 12:04:12;;;;;;;4.60;2.03;;;28.70;55.40;;;;;;5047842;28;20048;-68
2022/08/11 12:06:39;;;;;;;2.58;2.08;;;29.20;55.70;;;;;;5045230;28;20053;-68
2022/08/11 12:09:05;;;;;;;4.68;1.77;;;28.70;55.00;;;;;;5049129;28;20040;-69
2022/08/11 12:14:18;;;;;;;2.08;1.60;;;28.70;54.40;;;;;;5048759;28;20040;-68
2022/08/11 12:16:46;;;;;;;3.55;1.98;;;28.90;54.80;;;;;;5048133;28;20055;-68
2022/08/11 12:19:17;;;;;;;3.13;1.25;;;28.90;53.50;;;;;;5046989;28;20538;-69
2022/08/11 12:27:34;;;;;;;1.85;1.08;;;29.10;54.10;;;;;;4980382;28;20053;-69
2022/08/11 12:30:05;;;;;;;2.33;1.15;;;28.90;53.20;;;;;;4991160;28;20471;-68
2022/08/11 12:32:33;;;;;;;2.83;1.70;;;29.00;52.90;;;;;;4989518;28;20077;-68
2022/08/11 12:35:00;;;;;;;3.58;1.05;;;29.20;52.90;;;;;;4990332;28;20474;-69
2022/08/11 12:37:35;;;;;;;2.30;1.45;;;29.10;52.10;;;;;;4989419;28;20462;-69
2022/08/11 12:45:39;;;;;;;1.77;1.40;;;29.10;52.10;;;;;;4989659;28;20554;-68
2022/08/11 12:53:56;;;;;;;3.63;1.40;;;29.30;52.50;;;;;;4990257;28;20399;-70
2022/08/11 13:04:58;;;;;;;2.03;1.30;;;29.20;52.10;;;;;;5061001;28;20067;-67
2022/08/11 13:07:26;;;;;;;1.38;1.25;;;29.50;52.50;;;;;;5052922;28;20021;-67
2022/08/11 13:09:52;;;;;;;1.60;1.48;;;29.50;52.30;;;;;;5054535;28;20036;-68
2022/08/11 13:15:04;;;;;;;2.97;1.73;;;29.50;51.30;;;;;;5049950;28;20032;-67
2022/08/11 13:17:33;;;;;;;2.67;1.15;;;29.70;51.10;;;;;;5048305;28;20058;-66
2022/08/11 13:20:01;;;;;;;5.45;1.48;;;29.60;50.40;;;;;;5046208;28;20033;-67
2022/08/11 13:22:27;;;;;;;6.75;1.40;;;29.60;50.40;;;;;;5037411;28;20123;-67
2022/08/11 13:24:54;;;;;;;2.97;1.23;;;29.70;50.70;;;;;;5055029;28;20033;-67
2022/08/11 13:27:21;;;;;;;1.88;1.20;;;29.70;50.20;;;;;;5048974;28;20135;-67
2022/08/11 13:29:48;;;;;;;2.15;1.60;;;29.90;50.20;;;;;;5051767;28;20025;-67
2022/08/11 13:32:15;;;;;;;3.90;1.17;;;30.00;50.30;;;;;;5049831;28;20128;-67
2022/08/11 13:34:42;;;;;;;2.75;1.55;;;29.70;49.80;;;;;;5051802;28;20031;-67
2022/08/11 13:37:11;;;;;;;3.10;1.30;;;29.80;49.80;;;;;;5050240;28;20017;-67
2022/08/11 13:39:39;;;;;;;3.78;1.58;;;29.80;50.80;;;;;;5047277;28;20033;-67
2022/08/11 13:42:05;;;;;;;4.65;1.65;;;30.00;49.70;;;;;;5045287;28;20478;-66
2022/08/11 13:44:34;;;;;;;1.80;1.30;;;30.00;50.00;;;;;;5047127;28;20017;-66
2022/08/11 13:47:03;;;;;;;2.63;1.08;;;30.70;51.10;;;;;;5036634;28;20128;-67
2022/08/11 13:49:32;;;;;;;1.75;1.27;;;30.20;50.60;;;;;;5036982;28;20049;-68
2022/08/11 13:54:30;;;;;;;3.92;2.00;;;30.10;48.00;;;;;;5016978;28;20046;-67
2022/08/11 13:57:01;;;;;;;2.90;1.55;;;30.10;50.10;;;;;;5017128;28;20018;-68
2022/08/11 13:59:28;;;;;;;1.58;1.20;;;30.20;50.10;;;;;;5021058;28;20018;-69
2022/08/11 14:02:07;;;;;;;3.97;1.60;;;30.20;49.40;;;;;;5028619;28;20029;-69
2022/08/11 14:04:54;;;;;;;3.80;1.45;;;30.40;50.20;;;;;;5029873;28;20021;-69
2022/08/11 14:07:23;;;;;;;1.92;1.40;;;30.40;48.20;;;;;;5028010;28;20026;-69
2022/08/11 14:09:56;;;;;;;1.98;1.40;;;30.30;49.90;;;;;;5030524;28;20024;-69
2022/08/11 14:15:20;;;;;;;2.85;1.65;;;30.30;49.70;;;;;;5029875;28;20048;-69
2022/08/11 14:17:54;;;;;;;2.45;1.23;;;30.30;49.20;;;;;;5029417;28;20027;-68
2022/08/11 14:20:21;;;;;;;1.63;1.02;;;30.50;49.60;;;;;;5028183;28;20470;-68
2022/08/11 14:22:48;;;;;;;1.75;1.48;;;30.90;49.20;;;;;;5028003;28;20026;-68
2022/08/11 14:25:15;;;;;;;2.85;1.58;;;31.20;49.40;;;;;;5029353;28;20108;-69
2022/08/11 14:27:43;;;;;;;1.13;1.00;;;30.50;48.30;;;;;;5028862;28;20366;-68
2022/08/11 14:30:53;;;;;;;1.77;1.40;;;30.50;48.40;;;;;;5011812;28;20573;-68
2022/08/11 14:32:56;;;;;;;3.85;1.67;;;30.70;47.50;;;;;;5028389;28;20048;-69
2022/08/11 14:35:25;;;;;;;2.42;1.58;;;31.50;48.50;;;;;;5028882;28;20064;-68
2022/08/11 14:37:52;;;;;;;3.40;1.50;;;30.80;47.10;;;;;;5028687;28;20037;-68
2022/08/11 14:48:31;;;;;;;2.35;1.90;;;30.70;46.60;;;;;;5028955;28;20548;-68
2022/08/11 14:50:57;;;;;;;2.00;1.30;;;30.60;47.20;;;;;;5024288;28;20030;-68
2022/08/11 14:53:23;;;;;;;3.53;1.65;;;30.70;47.10;;;;;;5027713;28;20057;-68
2022/08/11 14:58:36;;;;;;;3.78;1.48;;;30.70;46.60;;;;;;5015754;28;20087;-68
2022/08/11 15:03:05;;;;;;;2.58;1.23;;;31.00;47.30;;;;;;5029154;28;20045;-68
2022/08/11 15:03:49;;;;;;;2.35;1.60;;;30.90;47.00;;;;;;5025594;28;20060;-68
2022/08/11 15:06:15;;;;;;;3.70;1.60;;;30.90;46.60;;;;;;5016078;28;20512;-68
2022/08/11 15:08:55;;;;;;;3.22;1.33;;;32.60;46.90;;;;;;5028910;28;20168;-68
2022/08/11 15:14:10;;;;;;;2.85;1.33;;;33.80;45.50;;;;;;5028061;28;20087;-68
2022/08/11 15:19:26;;;;;;;2.65;1.23;;;34.10;44.30;;;;;;5028567;28;20056;-67
2022/08/11 15:24:53;;;;;;;2.40;1.23;;;34.50;41.40;;;;;;4967822;28;20153;-68
2022/08/11 15:38:22;;;;;;;2.33;1.70;;;33.80;40.80;;;;;;4967363;28;20066;-68
2022/08/11 15:46:48;;;;;;;3.85;1.52;;;32.80;43.00;;;;;;4967368;28;20065;-68
2022/08/11 15:49:19;;;;;;;2.83;1.10;;;32.50;43.60;;;;;;4966517;28;20113;-68
2022/08/11 15:51:49;;;;;;;3.22;1.30;;;32.20;43.50;;;;;;4967784;28;20106;-68
2022/08/11 15:54:22;;;;;;;2.28;1.77;;;31.90;43.80;;;;;;4967107;28;20050;-68
2022/08/11 15:56:49;;;;;;;1.80;1.63;;;31.90;44.60;;;;;;4967264;28;20027;-68
2022/08/11 16:04:41;;;;;;;2.03;1.83;;;31.20;45.20;;;;;;5032236;28;20474;-68
2022/08/11 16:07:10;;;;;;;3.05;1.70;;;31.00;45.20;;;;;;5031285;28;20504;-68
2022/08/11 16:09:43;;;;;;;3.10;1.48;;;31.10;45.50;;;;;;5031778;28;20026;-68
2022/08/11 16:12:10;;;;;;;;;;;28.90;41.60;;;;;;5025130;28;20048;-68
2022/08/11 16:17:29;;;;;;;2.42;1.40;;;30.70;45.90;;;;;;5019501;28;20075;-68
2022/08/11 16:19:57;;;;;;;1.40;1.30;;;30.70;45.90;;;;;;5011855;28;20080;-68
2022/08/11 16:22:34;;;;;;;7.90;1.73;;;30.60;45.80;;;;;;5031461;28;20029;-68
2022/08/11 16:25:02;;;;;;;2.38;1.10;;;30.60;46.00;;;;;;5032447;28;20021;-66
2022/08/11 16:27:32;;;;;;;2.28;1.67;;;30.70;45.50;;;;;;5031444;28;20068;-69
2022/08/11 16:29:59;;;;;;;2.65;1.45;;;30.50;45.70;;;;;;5022443;28;20430;-68
2022/08/11 16:32:25;;;;;;;2.38;1.52;;;30.50;46.00;;;;;;5031126;28;20073;-69
2022/08/11 16:40:31;;;;;;;2.17;1.25;;;30.20;46.40;;;;;;5032035;28;20552;-68
2022/08/11 16:48:33;;;;;;;1.77;1.45;;;30.20;47.50;;;;;;5022366;28;20032;-68
2022/08/11 16:50:59;;;;;;;3.33;1.40;;;30.60;48.90;;;;;;5031278;28;20030;-68
2022/08/11 16:53:29;;;;;;;4.40;1.58;;;30.10;48.80;;;;;;5031116;28;20048;-68
2022/08/11 16:55:57;;;;;;;1.40;1.20;;;29.90;46.40;;;;;;5031406;28;20482;-69
2022/08/11 17:01:09;;;;;;;3.90;1.70;;;29.90;46.40;;;;;;5031073;28;20032;-69
2022/08/11 17:14:56;;;;;;;1.88;1.50;;;29.60;49.60;;;;;;5027992;28;21354;-68
2022/08/11 17:17:35;;;;;;;1.52;1.30;;;29.60;49.90;;;;;;5029418;28;20119;-69
2022/08/11 17:20:08;;;;;;;3.47;1.88;;;29.80;49.70;;;;;;5028880;28;20800;-69
2022/08/11 17:25:23;;;;;;;4.57;1.63;;;29.60;49.40;;;;;;5030510;28;20394;-69
2022/08/11 17:27:51;;;;;;;1.50;1.00;;;30.50;50.50;;;;;;5028258;28;20033;-68
2022/08/11 17:30:17;;;;;;;1.92;1.52;;;29.70;49.70;;;;;;5028987;28;20030;-69
2022/08/11 17:35:39;;;;;;;4.57;1.25;;;29.60;49.60;;;;;;5029930;28;20040;-68
2022/08/11 17:38:13;;;;;;;1.70;1.08;;;29.60;49.80;;;;;;5030547;28;20047;-69
2022/08/11 17:49:01;;;;;;;2.75;1.38;;;30.10;50.40;;;;;;5030282;28;20091;-67
2022/08/11 17:59:52;;;;;;;1.60;1.02;;;29.20;49.20;;;;;;5030291;28;20420;-68
2022/08/11 18:05:05;;;;;;;4.63;1.40;;;30.30;49.40;;;;;;5029438;28;20041;-68
